Terminal Aerodrome Forecast
Issued by NWS Grand Forks, ND

Home | Current Version | Previous Version | Text Only | Print | Product List | Glossary On
Versions: 1 2 3 4 5 6 7 8 9 10 11 12 13 14 15 16
000
FTUS43 KFGF 241720
TAFFAR
TAF
KFAR 241720Z 2418/2518 16014G22KT P6SM SCT040 BKN150
     FM250400 15010KT P6SM OVC120
     FM251500 20007KT P6SM SCT035
     FM251700 25005KT P6SM BKN090=

USA.gov is the U.S. government's official web portal to all federal, state and local government web resources and services.